Girolata — FPOD — position and weather

sailwx.info

Track history (hours):
 
Tides and Currents Weather Stations Pressure Air Temp Water Temp Dewpoint Dewpoint Depression Visibility Wind Speed Wind Dir Waves Ship Positions

Girolata

Last reported at 2017-Nov-19 19:20 UTC. Time now 2017-Nov-23 00:22 UTC.
Position N 43°12' E 005°18'.

Length 177 m; beam 27 m.

Type: Ship (hazmat cat A). MMSI: 226245000.

Date/timePositionNaut miles runAvg speedWind from/ knotsBaromVisibWave heightAir tempDewpointWater temp
2017-Nov-19 19:20N 43°12' E 005°18'616.9
2017-Nov-19 19:00N 43°18' E 005°16'4 8.0
2017-Nov-19 18:30N 43°20' E 005°21'0 0.8
2017-Nov-19 18:00N 43°20' E 005°21'0 0.0
2017-Nov-19 17:29N 43°20' E 005°21'0 0.0
2017-Nov-19 16:59N 43°20' E 005°21'0 0.0
2017-Nov-19 16:26N 43°20' E 005°21'0 0.0
2017-Nov-19 15:56N 43°20' E 005°21'0 0.0
2017-Nov-19 15:26N 43°20' E 005°21'0 0.0
2017-Nov-19 14:56N 43°20' E 005°21'0 0.0
2017-Nov-19 14:26N 43°20' E 005°21'0 0.0
2017-Nov-19 13:38N 43°20' E 005°21'0 0.0
2017-Nov-19 13:29N 43°20' E 005°21'0 0.0
2017-Nov-19 12:56N 43°20' E 005°21'0 0.0
2017-Nov-19 12:11N 43°20' E 005°21'0 0.0
2017-Nov-19 11:56N 43°20' E 005°21'0 0.0
2017-Nov-19 11:29N 43°20' E 005°21'0 0.0
2017-Nov-19 10:59N 43°20' E 005°21'0 0.0
2017-Nov-19 10:29N 43°20' E 005°21'0 0.0
2017-Nov-19 09:59N 43°20' E 005°21'0 0.0
2017-Nov-19 09:29N 43°20' E 005°21'0 0.0
2017-Nov-19 08:59N 43°20' E 005°21'0 0.0
2017-Nov-19 08:29N 43°20' E 005°21'0 0.0
2017-Nov-19 07:35N 43°20' E 005°21'0 0.0
2017-Nov-19 07:29N 43°20' E 005°21'0 0.0
2017-Nov-19 06:59N 43°20' E 005°21'2 4.9
2017-Nov-19 06:30N 43°21' E 005°18'510.7
2017-Nov-19 06:00N 43°15' E 005°18'102 3.5
2017-Nov-18 00:58N 42°21' E 007°16'10118.8
2017-Nov-17 19:36N 43°12' E 005°18'219.4
2017-Nov-17 19:30N 43°13' E 005°17'814.9
2017-Nov-17 19:00N 43°21' E 005°19'2 3.8
2017-Nov-17 18:29N 43°20' E 005°21'0 0.0
2017-Nov-17 17:32N 43°20' E 005°21'0 0.0
2017-Nov-17 17:26N 43°20' E 005°21'0 0.0
2017-Nov-17 16:47N 43°20' E 005°21'0 0.0
2017-Nov-17 16:14N 43°20' E 005°21'0 0.0
2017-Nov-17 15:59N 43°20' E 005°21'0 0.0
2017-Nov-17 15:20N 43°20' E 005°21'0 0.0
2017-Nov-17 14:59N 43°20' E 005°21'0 0.0
2017-Nov-17 14:20N 43°20' E 005°21'0 0.0
2017-Nov-17 13:50N 43°20' E 005°21'0 0.0
2017-Nov-17 13:05N 43°20' E 005°21'0 0.0
2017-Nov-17 12:50N 43°20' E 005°21'0 0.0
2017-Nov-17 12:08N 43°20' E 005°21'0 0.0
2017-Nov-17 11:50N 43°20' E 005°21'0 0.0
2017-Nov-17 11:20N 43°20' E 005°21'0 0.0
2017-Nov-17 10:50N 43°20' E 005°21'0 0.0
2017-Nov-17 10:20N 43°20' E 005°21'0 0.0
2017-Nov-17 09:50N 43°20' E 005°21'0 0.0
2017-Nov-17 09:26N 43°20' E 005°21'0 0.0
2017-Nov-17 08:56N 43°20' E 005°21'0 0.0
2017-Nov-17 08:26N 43°20' E 005°21'0 0.0
2017-Nov-17 08:00N 43°20' E 005°21'0 0.1
2017-Nov-17 07:31N 43°20' E 005°21'2 3.6
2017-Nov-17 07:00N 43°19' E 005°19'611.3
2017-Nov-17 06:30N 43°13' E 005°18'9321.2
2017-Nov-17 02:08N 42°25' E 007°06'220.9
2017-Nov-17 02:00N 42°24' E 007°09'95 3.1
2017-Nov-15 19:06N 43°12' E 005°19'215.2
2017-Nov-15 19:00N 43°14' E 005°18'510.4
2017-Nov-15 18:28N 43°19' E 005°22'0 0.0
2017-Nov-15 17:45N 43°19' E 005°22'0 0.0
2017-Nov-15 17:30N 43°19' E 005°22'0 0.0
2017-Nov-15 16:40N 43°19' E 005°22'0 0.0
2017-Nov-15 09:03N 43°19' E 005°22'0 0.0
2017-Nov-15 07:21N 43°19' E 005°22'0 0.0
2017-Nov-15 06:51N 43°19' E 005°22'0 0.0
2017-Nov-15 06:21N 43°19' E 005°22'0 0.0
2017-Nov-15 06:00N 43°19' E 005°22'1 1.3
2017-Nov-15 05:30N 43°18' E 005°22'5 9.8
2017-Nov-15 05:01N 43°14' E 005°18'7619.2
2017-Nov-15 01:02N 42°60' E 007°01'219.3
2017-Nov-15 00:57N 42°60' E 007°04'819.1
2017-Nov-15 00:31N 43°01' E 007°15'918.7
2017-Nov-15 00:00N 43°03' E 007°27'815.7
2017-Nov-14 23:28N 42°57' E 007°36'19 0.4
2017-Nov-13 01:40N 43°15' E 007°28'312.7
2017-Nov-13 01:25N 43°12' E 007°30'512.5
2017-Nov-13 01:00N 43°08' E 007°34'99 3.3
2017-Nov-11 18:52N 43°12' E 005°19'512.5
2017-Nov-11 18:27N 43°17' E 005°20'2 0.2
2017-Nov-11 06:52N 43°19' E 005°22'2 4.3
2017-Nov-11 06:30N 43°18' E 005°20'2 4.7
2017-Nov-11 06:00N 43°16' E 005°18'  
Track history (hours):
 
Tides and Currents Weather Stations Pressure Air Temp Water Temp Dewpoint Dewpoint Depression Visibility Wind Speed Wind Dir Waves Ship Positions

Girolata

Last reported at 2017-Nov-19 19:20 UTC. Time now 2017-Nov-23 00:22 UTC.
Position N 43°12' E 005°18'.

Length 177 m; beam 27 m.

Type: Ship (hazmat cat A). MMSI: 226245000.

Date/timePositionNaut miles runAvg speedWind from/ knotsBaromVisibWave heightAir tempDewpointWater temp
2017-Nov-19 19:20N 43°12' E 005°18'616.9
2017-Nov-19 19:00N 43°18' E 005°16'4 8.0
2017-Nov-19 18:30N 43°20' E 005°21'0 0.8
2017-Nov-19 18:00N 43°20' E 005°21'0 0.0
2017-Nov-19 17:29N 43°20' E 005°21'0 0.0
2017-Nov-19 16:59N 43°20' E 005°21'0 0.0
2017-Nov-19 16:26N 43°20' E 005°21'0 0.0
2017-Nov-19 15:56N 43°20' E 005°21'0 0.0
2017-Nov-19 15:26N 43°20' E 005°21'0 0.0
2017-Nov-19 14:56N 43°20' E 005°21'0 0.0
2017-Nov-19 14:26N 43°20' E 005°21'0 0.0
2017-Nov-19 13:38N 43°20' E 005°21'0 0.0
2017-Nov-19 13:29N 43°20' E 005°21'0 0.0
2017-Nov-19 12:56N 43°20' E 005°21'0 0.0
2017-Nov-19 12:11N 43°20' E 005°21'0 0.0
2017-Nov-19 11:56N 43°20' E 005°21'0 0.0
2017-Nov-19 11:29N 43°20' E 005°21'0 0.0
2017-Nov-19 10:59N 43°20' E 005°21'0 0.0
2017-Nov-19 10:29N 43°20' E 005°21'0 0.0
2017-Nov-19 09:59N 43°20' E 005°21'0 0.0
2017-Nov-19 09:29N 43°20' E 005°21'0 0.0
2017-Nov-19 08:59N 43°20' E 005°21'0 0.0
2017-Nov-19 08:29N 43°20' E 005°21'0 0.0
2017-Nov-19 07:35N 43°20' E 005°21'0 0.0
2017-Nov-19 07:29N 43°20' E 005°21'0 0.0
2017-Nov-19 06:59N 43°20' E 005°21'2 4.9
2017-Nov-19 06:30N 43°21' E 005°18'510.7
2017-Nov-19 06:00N 43°15' E 005°18'102 3.5
2017-Nov-18 00:58N 42°21' E 007°16'10118.8
2017-Nov-17 19:36N 43°12' E 005°18'219.4
2017-Nov-17 19:30N 43°13' E 005°17'814.9
2017-Nov-17 19:00N 43°21' E 005°19'2 3.8
2017-Nov-17 18:29N 43°20' E 005°21'0 0.0
2017-Nov-17 17:32N 43°20' E 005°21'0 0.0
2017-Nov-17 17:26N 43°20' E 005°21'0 0.0
2017-Nov-17 16:47N 43°20' E 005°21'0 0.0
2017-Nov-17 16:14N 43°20' E 005°21'0 0.0
2017-Nov-17 15:59N 43°20' E 005°21'0 0.0
2017-Nov-17 15:20N 43°20' E 005°21'0 0.0
2017-Nov-17 14:59N 43°20' E 005°21'0 0.0
2017-Nov-17 14:20N 43°20' E 005°21'0 0.0
2017-Nov-17 13:50N 43°20' E 005°21'0 0.0
2017-Nov-17 13:05N 43°20' E 005°21'0 0.0
2017-Nov-17 12:50N 43°20' E 005°21'0 0.0
2017-Nov-17 12:08N 43°20' E 005°21'0 0.0
2017-Nov-17 11:50N 43°20' E 005°21'0 0.0
2017-Nov-17 11:20N 43°20' E 005°21'0 0.0
2017-Nov-17 10:50N 43°20' E 005°21'0 0.0
2017-Nov-17 10:20N 43°20' E 005°21'0 0.0
2017-Nov-17 09:50N 43°20' E 005°21'0 0.0
2017-Nov-17 09:26N 43°20' E 005°21'0 0.0
2017-Nov-17 08:56N 43°20' E 005°21'0 0.0
2017-Nov-17 08:26N 43°20' E 005°21'0 0.0
2017-Nov-17 08:00N 43°20' E 005°21'0 0.1
2017-Nov-17 07:31N 43°20' E 005°21'2 3.6
2017-Nov-17 07:00N 43°19' E 005°19'611.3
2017-Nov-17 06:30N 43°13' E 005°18'9321.2
2017-Nov-17 02:08N 42°25' E 007°06'220.9
2017-Nov-17 02:00N 42°24' E 007°09'95 3.1
2017-Nov-15 19:06N 43°12' E 005°19'215.2
2017-Nov-15 19:00N 43°14' E 005°18'510.4
2017-Nov-15 18:28N 43°19' E 005°22'0 0.0
2017-Nov-15 17:45N 43°19' E 005°22'0 0.0
2017-Nov-15 17:30N 43°19' E 005°22'0 0.0
2017-Nov-15 16:40N 43°19' E 005°22'0 0.0
2017-Nov-15 09:03N 43°19' E 005°22'0 0.0
2017-Nov-15 07:21N 43°19' E 005°22'0 0.0
2017-Nov-15 06:51N 43°19' E 005°22'0 0.0
2017-Nov-15 06:21N 43°19' E 005°22'0 0.0
2017-Nov-15 06:00N 43°19' E 005°22'1 1.3
2017-Nov-15 05:30N 43°18' E 005°22'5 9.8
2017-Nov-15 05:01N 43°14' E 005°18'7619.2
2017-Nov-15 01:02N 42°60' E 007°01'219.3
2017-Nov-15 00:57N 42°60' E 007°04'819.1
2017-Nov-15 00:31N 43°01' E 007°15'918.7
2017-Nov-15 00:00N 43°03' E 007°27'815.7
2017-Nov-14 23:28N 42°57' E 007°36'19 0.4
2017-Nov-13 01:40N 43°15' E 007°28'312.7
2017-Nov-13 01:25N 43°12' E 007°30'512.5
2017-Nov-13 01:00N 43°08' E 007°34'99 3.3
2017-Nov-11 18:52N 43°12' E 005°19'512.5
2017-Nov-11 18:27N 43°17' E 005°20'2 0.2
2017-Nov-11 06:52N 43°19' E 005°22'2 4.3
2017-Nov-11 06:30N 43°18' E 005°20'2 4.7
2017-Nov-11 06:00N 43°16' E 005°18'  

Dump ship's entire track history